createdAt,value
2018-04-18T00:01:36.819Z,5.50
2018-04-18T00:04:04.447Z,6.07
2018-04-18T00:06:32.061Z,5.30
2018-04-18T00:08:59.875Z,5.67
2018-04-18T00:11:27.464Z,6.20
2018-04-18T00:13:55.109Z,5.90
2018-04-18T00:16:22.752Z,6.03
2018-04-18T00:18:50.357Z,6.27
2018-04-18T00:21:17.923Z,6.00
2018-04-18T00:23:45.563Z,6.40
2018-04-18T00:26:13.144Z,6.13
2018-04-18T00:28:40.796Z,6.57
2018-04-18T00:31:09.588Z,6.07
2018-04-18T00:33:37.943Z,6.00
2018-04-18T00:36:05.632Z,6.07
2018-04-18T00:38:33.349Z,5.93
2018-04-18T00:41:00.936Z,6.60
2018-04-18T00:43:28.512Z,5.97
2018-04-18T00:45:56.272Z,6.63
2018-04-18T00:48:24.745Z,6.43
2018-04-18T00:50:52.345Z,6.63
2018-04-18T00:53:20.037Z,6.10
2018-04-18T00:55:47.610Z,6.77
2018-04-18T00:58:15.180Z,6.43
2018-04-18T01:00:43.140Z,5.60
2018-04-18T01:03:10.720Z,5.67
2018-04-18T01:05:38.314Z,5.30
2018-04-18T01:08:06.032Z,4.47
2018-04-18T01:10:33.612Z,5.00
2018-04-18T01:13:01.259Z,4.93
2018-04-18T01:15:28.983Z,8.20
2018-04-18T01:17:56.584Z,5.83
2018-04-18T01:20:24.249Z,6.10
2018-04-18T01:22:51.964Z,5.67
2018-04-18T01:25:19.606Z,5.67
2018-04-18T01:27:47.245Z,5.63
2018-04-18T01:30:14.915Z,5.57
2018-04-18T01:32:42.483Z,6.03
2018-04-18T01:35:10.059Z,6.07
2018-04-18T01:37:37.741Z,6.20
2018-04-18T01:40:05.384Z,5.87
2018-04-18T01:42:32.988Z,6.03
2018-04-18T01:45:00.732Z,5.80
2018-04-18T01:47:28.336Z,6.13
2018-04-18T01:49:55.935Z,6.50
2018-04-18T01:52:23.651Z,5.97
2018-04-18T01:54:51.292Z,5.73
2018-04-18T01:57:18.867Z,6.17
2018-04-18T01:59:46.583Z,5.70
2018-04-18T02:02:14.388Z,5.10
2018-04-18T02:04:41.982Z,5.43
2018-04-18T02:07:09.704Z,5.67
2018-04-18T02:09:37.336Z,5.93
2018-04-18T02:12:04.931Z,5.63
2018-04-18T02:14:32.618Z,5.37
2018-04-18T02:17:00.187Z,5.77
2018-04-18T02:19:27.791Z,5.70
2018-04-18T02:21:55.411Z,5.83
2018-04-18T02:24:22.984Z,5.33
2018-04-18T02:26:50.560Z,5.03
2018-04-18T02:29:18.299Z,5.60
2018-04-18T02:31:45.907Z,4.97
2018-04-18T02:34:13.504Z,5.27
2018-04-18T02:36:41.230Z,5.87
2018-04-18T02:39:08.823Z,5.40
2018-04-18T02:41:36.425Z,5.10
2018-04-18T02:44:04.111Z,5.03
2018-04-18T02:46:32.501Z,5.53
2018-04-18T02:49:00.109Z,5.60
2018-04-18T02:51:27.853Z,5.70
2018-04-18T02:53:55.472Z,5.40
2018-04-18T02:56:23.121Z,5.77
2018-04-18T02:58:50.755Z,5.77
2018-04-18T03:01:18.351Z,5.23
2018-04-18T03:03:46.167Z,5.90
2018-04-18T03:06:13.807Z,5.40
2018-04-18T03:08:41.530Z,6.23
2018-04-18T03:11:09.121Z,6.10
2018-04-18T03:13:36.768Z,6.20
2018-04-18T03:16:04.383Z,5.83
2018-04-18T03:18:31.954Z,5.90
2018-04-18T03:20:59.657Z,5.53
2018-04-18T03:23:27.244Z,5.40
2018-04-18T03:25:54.852Z,5.70
2018-04-18T03:28:22.568Z,5.87
2018-04-18T03:30:50.162Z,6.37
2018-04-18T03:33:17.743Z,6.47
2018-04-18T03:35:45.473Z,7.53
2018-04-18T03:38:13.048Z,6.57
2018-04-18T03:40:40.690Z,6.53
2018-04-18T03:43:08.427Z,6.50
2018-04-18T03:45:36.044Z,6.40
2018-04-18T03:48:03.757Z,6.23
2018-04-18T03:50:31.472Z,5.90
2018-04-18T03:52:59.105Z,6.70
2018-04-18T03:55:26.697Z,7.03
2018-04-18T03:57:54.349Z,6.97
2018-04-18T04:00:21.937Z,6.37
2018-04-18T04:02:49.597Z,6.07
2018-04-18T04:05:17.386Z,7.07
2018-04-18T04:07:45.039Z,6.30
2018-04-18T04:10:12.756Z,6.10
2018-04-18T04:12:41.331Z,6.60
2018-04-18T04:15:08.916Z,6.73
2018-04-18T04:17:57.380Z,6.53
2018-04-18T04:20:36.693Z,6.77
2018-04-18T04:23:16.091Z,7.23
2018-04-18T04:25:43.729Z,7.60
2018-04-18T04:28:11.313Z,7.77
2018-04-18T04:30:39.096Z,8.00
2018-04-18T04:33:06.771Z,8.50
2018-04-18T04:35:34.439Z,9.23
2018-04-18T04:38:02.068Z,8.93
2018-04-18T04:40:29.717Z,9.67
2018-04-18T04:42:57.362Z,10.07
2018-04-18T04:45:25.085Z,20.77
2018-04-18T04:47:52.660Z,12.90
2018-04-18T04:50:20.249Z,12.40
2018-04-18T04:52:47.892Z,16.80
2018-04-18T04:55:15.486Z,14.23
2018-04-18T04:57:43.157Z,12.83
2018-04-18T05:00:10.855Z,16.80
2018-04-18T05:02:38.437Z,13.77
2018-04-18T05:05:06.097Z,13.10
2018-04-18T05:07:33.923Z,12.47
2018-04-18T05:10:01.569Z,14.03
2018-04-18T05:12:29.155Z,12.57
2018-04-18T05:14:56.846Z,12.30
2018-04-18T05:17:24.493Z,11.23
2018-04-18T05:19:52.137Z,11.47
2018-04-18T05:22:19.764Z,10.53
2018-04-18T05:24:47.376Z,10.10
2018-04-18T05:27:15.939Z,9.70
2018-04-18T05:29:43.812Z,10.80
2018-04-18T05:32:11.426Z,9.77
2018-04-18T05:37:20.054Z,10.07
2018-04-18T05:42:34.144Z,10.03
2018-04-18T05:45:01.851Z,10.13
2018-04-18T05:47:29.438Z,9.83
2018-04-18T05:49:57.023Z,10.70
2018-04-18T05:52:24.795Z,10.70
2018-04-18T05:54:52.517Z,9.80
2018-04-18T05:57:20.182Z,11.10
2018-04-18T05:59:47.836Z,10.67
2018-04-18T06:02:15.496Z,10.40
2018-04-18T06:04:43.202Z,11.40
2018-04-18T06:07:10.929Z,9.77
2018-04-18T06:09:38.836Z,10.80
2018-04-18T06:12:06.495Z,10.37
2018-04-18T06:14:34.129Z,10.57
2018-04-18T06:17:01.723Z,10.27
2018-04-18T06:19:29.316Z,10.20
2018-04-18T06:21:57.034Z,10.33
2018-04-18T06:24:24.771Z,9.87
2018-04-18T06:26:52.364Z,10.10
2018-04-18T06:29:20.078Z,10.10
2018-04-18T06:31:47.704Z,9.57
2018-04-18T06:34:15.296Z,9.70
2018-04-18T06:36:42.915Z,9.87
2018-04-18T06:39:10.516Z,10.03
2018-04-18T06:41:38.152Z,9.03
2018-04-18T06:44:05.946Z,8.63
2018-04-18T06:46:33.536Z,8.33
2018-04-18T06:49:01.115Z,8.00
2018-04-18T06:51:28.823Z,7.90
2018-04-18T06:53:56.474Z,7.53
2018-04-18T06:56:24.868Z,7.33
2018-04-18T06:58:52.565Z,7.30
2018-04-18T07:01:20.171Z,7.50
2018-04-18T07:03:47.817Z,7.33
2018-04-18T07:06:15.556Z,7.80
2018-04-18T07:08:43.180Z,7.87
2018-04-18T07:11:10.906Z,8.20
2018-04-18T07:13:39.184Z,8.00
2018-04-18T07:16:06.837Z,7.30
2018-04-18T07:18:34.568Z,7.87
2018-04-18T07:21:02.234Z,7.13
2018-04-18T07:23:29.816Z,6.97
2018-04-18T07:25:57.404Z,7.23
2018-04-18T07:28:25.097Z,7.23
2018-04-18T07:30:52.676Z,7.17
2018-04-18T07:33:20.319Z,7.90
2018-04-18T07:35:48.046Z,7.70
2018-04-18T07:38:15.660Z,7.43
2018-04-18T07:40:43.300Z,7.40
2018-04-18T07:43:11.091Z,7.40
2018-04-18T07:45:38.686Z,9.67
2018-04-18T07:48:06.349Z,8.30
2018-04-18T07:50:34.055Z,7.30
2018-04-18T07:53:01.699Z,7.50
2018-04-18T07:55:29.363Z,6.50
2018-04-18T07:57:57.029Z,6.57
2018-04-18T08:00:24.616Z,6.77
2018-04-18T08:02:52.217Z,6.90
2018-04-18T08:05:20.006Z,7.07
2018-04-18T08:07:47.668Z,6.53
2018-04-18T08:10:15.255Z,6.37
2018-04-18T08:12:43.112Z,6.60
2018-04-18T08:15:10.697Z,6.30
2018-04-18T08:17:38.325Z,6.67
2018-04-18T08:20:06.021Z,6.77
2018-04-18T08:22:33.620Z,7.43
2018-04-18T08:25:01.211Z,6.37
2018-04-18T08:27:28.841Z,6.03
2018-04-18T08:29:56.965Z,6.47
2018-04-18T08:32:24.625Z,5.93
2018-04-18T08:34:52.280Z,6.10
2018-04-18T08:37:20.638Z,6.20
2018-04-18T08:39:48.900Z,8.03
2018-04-18T08:42:16.614Z,6.50
2018-04-18T08:44:44.195Z,6.70
2018-04-18T08:47:11.802Z,6.43
2018-04-18T08:49:39.467Z,5.73
2018-04-18T08:52:07.130Z,5.87
2018-04-18T08:54:34.714Z,5.83
2018-04-18T08:57:02.479Z,5.50
2018-04-18T08:59:30.121Z,5.73
2018-04-18T09:01:57.708Z,5.63
2018-04-18T09:04:25.580Z,5.63
2018-04-18T09:06:53.259Z,5.53
2018-04-18T09:09:20.861Z,4.90
2018-04-18T09:11:48.607Z,5.87
2018-04-18T09:14:16.337Z,5.63
2018-04-18T09:16:43.950Z,5.90
2018-04-18T09:19:11.590Z,5.53
2018-04-18T09:21:39.192Z,6.20
2018-04-18T09:24:06.776Z,6.20
2018-04-18T09:26:34.421Z,20.13
2018-04-18T09:29:02.086Z,5.57
2018-04-18T09:31:29.669Z,7.07
2018-04-18T09:33:57.332Z,7.03
2018-04-18T09:36:24.948Z,6.00
2018-04-18T09:38:52.535Z,12.53
2018-04-18T09:41:20.253Z,7.77
2018-04-18T09:43:47.896Z,5.83
2018-04-18T09:46:15.529Z,5.97
2018-04-18T09:48:43.269Z,7.32
2018-04-18T09:51:10.860Z,5.97
2018-04-18T09:53:38.447Z,5.53
2018-04-18T09:56:06.069Z,5.80
2018-04-18T09:58:33.700Z,5.80
2018-04-18T10:01:01.326Z,5.47
2018-04-18T10:03:28.980Z,6.05
2018-04-18T10:05:56.571Z,5.97
2018-04-18T10:08:24.156Z,6.15
2018-04-18T10:10:51.803Z,4.78
2018-04-18T10:13:19.449Z,4.57
2018-04-18T10:15:47.154Z,4.68
2018-04-18T10:18:14.890Z,4.50
2018-04-18T10:20:42.468Z,4.12
2018-04-18T10:23:11.028Z,4.35
2018-04-18T10:25:38.773Z,4.40
2018-04-18T10:28:06.449Z,4.80
2018-04-18T10:30:34.110Z,4.57
2018-04-18T10:33:01.878Z,4.47
2018-04-18T10:35:29.463Z,4.28
2018-04-18T10:37:57.119Z,4.68
2018-04-18T10:40:24.832Z,5.18
2018-04-18T10:42:52.468Z,4.93
2018-04-18T10:45:20.041Z,4.50
2018-04-18T10:47:47.679Z,5.05
2018-04-18T10:50:15.280Z,5.20
2018-04-18T10:52:42.902Z,4.50
2018-04-18T10:55:10.684Z,4.87
2018-04-18T10:57:38.266Z,4.82
2018-04-18T11:00:05.866Z,5.97
2018-04-18T11:02:33.569Z,5.62
2018-04-18T11:05:01.155Z,5.50
2018-04-18T11:07:28.775Z,14.10
2018-04-18T11:09:56.485Z,6.53
2018-04-18T11:12:24.128Z,4.80
2018-04-18T11:14:51.760Z,4.95
2018-04-18T11:17:19.478Z,9.23
2018-04-18T11:19:47.843Z,5.40
2018-04-18T11:22:16.096Z,5.03
2018-04-18T11:24:43.855Z,4.93
2018-04-18T11:27:11.464Z,6.60
2018-04-18T11:29:39.059Z,9.70
2018-04-18T11:32:06.749Z,5.80
2018-04-18T11:34:34.385Z,5.18
2018-04-18T11:37:02.024Z,5.75
2018-04-18T11:39:29.839Z,6.55
2018-04-18T11:41:57.437Z,6.37
2018-04-18T11:44:25.018Z,5.78
2018-04-18T11:46:52.729Z,6.32
2018-04-18T11:49:20.404Z,5.62
2018-04-18T11:51:47.988Z,5.07
2018-04-18T11:54:15.637Z,5.78
2018-04-18T11:56:43.245Z,5.40
2018-04-18T11:59:10.855Z,5.20
2018-04-18T12:01:39.281Z,5.87
2018-04-18T12:04:06.977Z,6.45
2018-04-18T12:06:34.648Z,6.60
2018-04-18T12:09:02.335Z,5.97
2018-04-18T12:11:29.974Z,5.57
2018-04-18T12:13:57.576Z,6.32
2018-04-18T12:16:25.278Z,6.25
2018-04-18T12:18:53.207Z,6.50
2018-04-18T12:21:20.797Z,6.03
2018-04-18T12:23:48.505Z,6.43
2018-04-18T12:26:16.075Z,6.20
2018-04-18T12:28:43.659Z,7.78
2018-04-18T12:31:12.174Z,7.50
2018-04-18T12:33:39.759Z,6.53
2018-04-18T12:36:07.368Z,7.60
2018-04-18T12:44:23.680Z,6.95
2018-04-18T12:46:51.308Z,6.22
2018-04-18T12:49:18.890Z,6.47
2018-04-18T12:51:46.489Z,7.03
2018-04-18T12:54:14.903Z,5.85
2018-04-18T12:56:42.516Z,6.95
2018-04-18T12:59:10.172Z,6.28
2018-04-18T13:01:37.895Z,6.20
2018-04-18T13:04:05.489Z,6.15
2018-04-18T13:06:33.992Z,6.47
2018-04-18T13:09:01.621Z,6.12
2018-04-18T13:11:29.407Z,6.25
2018-04-18T13:13:57.000Z,6.93
2018-04-18T13:16:24.654Z,6.78
2018-04-18T13:18:52.404Z,6.75
2018-04-18T13:21:20.004Z,6.60
2018-04-18T13:23:47.733Z,7.30
2018-04-18T13:26:15.323Z,6.55
2018-04-18T13:28:42.900Z,7.47
2018-04-18T13:31:10.537Z,6.45
2018-04-18T13:33:38.116Z,6.87
2018-04-18T13:36:06.149Z,6.87
2018-04-18T13:38:33.806Z,6.78
2018-04-18T13:41:01.439Z,7.43
2018-04-18T13:43:29.039Z,7.03
2018-04-18T13:45:56.726Z,6.45
2018-04-18T13:48:24.412Z,33.20
2018-04-18T13:50:51.995Z,8.13
2018-04-18T13:53:19.620Z,7.72
2018-04-18T13:55:47.205Z,8.20
2018-04-18T13:58:14.845Z,7.37
2018-04-18T14:00:42.471Z,7.23
2018-04-18T14:03:10.056Z,7.03
2018-04-18T14:05:37.652Z,7.10
2018-04-18T14:08:05.610Z,8.52
2018-04-18T14:10:33.258Z,8.20
2018-04-18T14:13:01.448Z,8.20
2018-04-18T14:15:29.112Z,10.00
2018-04-18T14:17:56.770Z,8.07
2018-04-18T14:20:24.493Z,7.93
2018-04-18T14:22:52.138Z,7.47
2018-04-18T14:25:19.721Z,7.00
2018-04-18T14:27:47.373Z,7.32
2018-04-18T14:30:15.018Z,8.30
2018-04-18T14:32:42.602Z,8.17
2018-04-18T14:35:10.184Z,7.20
2018-04-18T14:37:37.937Z,7.37
2018-04-18T14:40:05.636Z,7.43
2018-04-18T14:42:33.295Z,7.03
2018-04-18T14:45:01.054Z,7.27
2018-04-18T14:47:28.633Z,7.20
2018-04-18T14:49:56.278Z,7.03
2018-04-18T14:52:23.927Z,7.10
2018-04-18T14:54:51.614Z,7.27
2018-04-18T14:57:19.267Z,7.07
2018-04-18T14:59:46.913Z,7.60
2018-04-18T15:02:22.186Z,8.47
2018-04-18T15:04:56.785Z,7.70
2018-04-18T15:07:27.970Z,7.67
2018-04-18T15:09:55.834Z,7.20
2018-04-18T15:12:23.430Z,7.50
2018-04-18T15:14:51.027Z,7.67
2018-04-18T15:17:18.763Z,6.80
2018-04-18T15:19:46.348Z,7.23
2018-04-18T15:22:14.099Z,7.83
2018-04-18T15:24:42.176Z,8.13
2018-04-18T15:27:09.809Z,8.10
2018-04-18T15:29:37.570Z,9.40
2018-04-18T15:32:05.241Z,12.00
2018-04-18T15:34:32.833Z,8.57
2018-04-18T15:37:00.481Z,8.10
2018-04-18T15:39:28.156Z,7.90
2018-04-18T15:41:55.777Z,7.73
2018-04-18T15:44:23.347Z,6.90
2018-04-18T15:46:51.065Z,8.77
2018-04-18T15:49:18.640Z,7.80
2018-04-18T15:51:46.285Z,7.97
2018-04-18T15:54:14.153Z,8.27
2018-04-18T15:56:41.772Z,7.87
2018-04-18T15:59:09.457Z,8.73
2018-04-18T16:01:37.100Z,8.40
2018-04-18T16:04:04.749Z,8.27
2018-04-18T16:06:32.325Z,8.37
2018-04-18T16:09:00.045Z,8.90
2018-04-18T16:11:27.709Z,9.03
2018-04-18T16:13:56.112Z,8.47
2018-04-18T16:16:23.740Z,8.60
2018-04-18T16:18:51.321Z,8.23
2018-04-18T16:21:18.968Z,8.00
2018-04-18T16:23:46.811Z,8.03
2018-04-18T16:26:14.396Z,7.83
2018-04-18T16:28:41.995Z,7.90
2018-04-18T16:31:09.787Z,7.83
2018-04-18T16:33:37.369Z,7.83
2018-04-18T16:36:04.996Z,7.27
2018-04-18T16:38:32.625Z,6.90
2018-04-18T16:41:00.256Z,9.23
2018-04-18T16:43:27.912Z,7.87
2018-04-18T16:45:55.614Z,7.50
2018-04-18T16:48:23.255Z,7.10
2018-04-18T16:50:50.893Z,7.83
2018-04-18T16:53:18.580Z,8.07
2018-04-18T16:55:46.233Z,7.87
2018-04-18T16:58:13.890Z,7.83
2018-04-18T17:00:41.686Z,7.43
2018-04-18T17:03:09.271Z,8.23
2018-04-18T17:05:36.873Z,8.20
2018-04-18T17:08:04.916Z,8.43
2018-04-18T17:10:32.547Z,7.43
2018-04-18T17:13:00.125Z,8.00
2018-04-18T17:15:27.818Z,8.10
2018-04-18T17:17:55.477Z,10.00
2018-04-18T17:20:23.064Z,8.77
2018-04-18T17:22:50.700Z,8.40
2018-04-18T17:25:18.366Z,8.83
2018-04-18T17:27:46.052Z,8.10
2018-04-18T17:30:13.784Z,8.67
2018-04-18T17:32:41.365Z,8.07
2018-04-18T17:35:08.966Z,8.37
2018-04-18T17:37:36.700Z,8.77
2018-04-18T17:40:04.352Z,9.10
2018-04-18T17:42:32.037Z,8.50
2018-04-18T17:44:59.778Z,8.80
2018-04-18T17:47:27.393Z,8.70
2018-04-18T17:49:55.087Z,8.50
2018-04-18T17:52:22.858Z,8.53
2018-04-18T17:54:50.566Z,8.70
2018-04-18T17:57:18.173Z,9.43
2018-04-18T17:59:46.024Z,9.10
2018-04-18T18:02:13.638Z,8.87
2018-04-18T18:04:41.285Z,9.20
2018-04-18T18:07:09.112Z,9.93
2018-04-18T18:09:36.693Z,9.37
2018-04-18T18:12:04.518Z,10.97
2018-04-18T18:14:32.179Z,9.07
2018-04-18T18:16:59.776Z,9.43
2018-04-18T18:19:27.360Z,9.67
2018-04-18T18:21:55.103Z,10.57
2018-04-18T18:24:22.713Z,10.10
2018-04-18T18:26:50.690Z,9.67
2018-04-18T18:29:18.413Z,12.63
2018-04-18T18:31:46.012Z,12.43
2018-04-18T18:34:13.669Z,12.40
2018-04-18T18:36:41.301Z,11.03
2018-04-18T18:39:08.947Z,9.93
2018-04-18T18:41:36.545Z,9.97
2018-04-18T18:44:04.221Z,11.37
2018-04-18T18:46:31.877Z,10.50
2018-04-18T18:48:59.545Z,9.97
2018-04-18T18:51:27.513Z,10.17
2018-04-18T18:53:55.152Z,10.77
2018-04-18T18:56:22.812Z,11.00
2018-04-18T18:58:50.553Z,11.20
2018-04-18T19:01:18.234Z,11.23
2018-04-18T19:03:45.855Z,11.33
2018-04-18T19:06:13.596Z,10.70
2018-04-18T19:08:41.201Z,11.40
2018-04-18T19:11:08.827Z,10.93
2018-04-18T19:13:36.614Z,10.67
2018-04-18T19:16:04.228Z,10.60
2018-04-18T19:18:31.937Z,9.77
2018-04-18T19:20:59.647Z,10.83
2018-04-18T19:23:27.224Z,11.47
2018-04-18T19:25:55.743Z,9.87
2018-04-18T19:28:23.830Z,12.53
2018-04-18T19:30:51.422Z,9.90
2018-04-18T19:33:19.004Z,9.67
2018-04-18T19:35:46.792Z,8.90
2018-04-18T19:38:14.453Z,9.37
2018-04-18T19:40:42.042Z,9.50
2018-04-18T19:43:09.675Z,9.40
2018-04-18T19:45:37.532Z,9.57
2018-04-18T19:48:05.206Z,10.40
2018-04-18T19:50:32.908Z,11.50
2018-04-18T19:53:00.558Z,11.40
2018-04-18T19:55:28.169Z,8.87
2018-04-18T19:57:55.791Z,8.40
2018-04-18T20:00:23.479Z,9.10
2018-04-18T20:02:51.067Z,8.40
2018-04-18T20:05:18.809Z,9.00
2018-04-18T20:07:46.468Z,8.77
2018-04-18T20:10:14.081Z,10.73
2018-04-18T20:12:41.824Z,9.17
2018-04-18T20:15:10.449Z,9.43
2018-04-18T20:17:38.032Z,8.40
2018-04-18T20:20:06.589Z,8.43
2018-04-18T20:22:34.240Z,8.47
2018-04-18T20:25:01.788Z,8.00
2018-04-18T20:27:32.111Z,8.23
2018-04-18T20:29:59.764Z,8.37
2018-04-18T20:32:27.412Z,8.60
2018-04-18T20:34:55.092Z,8.57
2018-04-18T20:37:22.684Z,9.20
2018-04-18T20:39:50.263Z,10.27
2018-04-18T20:42:17.956Z,9.67
2018-04-18T20:44:45.543Z,9.77
2018-04-18T20:47:13.148Z,9.97
2018-04-18T20:49:40.920Z,9.10
2018-04-18T20:52:08.565Z,9.07
2018-04-18T20:54:36.173Z,9.33
2018-04-18T20:57:03.925Z,8.93
2018-04-18T20:59:31.523Z,8.70
2018-04-18T21:01:59.143Z,8.73
2018-04-18T21:04:26.806Z,9.37
2018-04-18T21:06:54.448Z,8.67
2018-04-18T21:09:22.032Z,9.17
2018-04-18T21:11:49.800Z,9.00
2018-04-18T21:14:17.368Z,8.57
2018-04-18T21:16:44.945Z,8.67
2018-04-18T21:19:12.671Z,8.27
2018-04-18T21:21:40.351Z,9.27
2018-04-18T21:24:07.973Z,8.40
2018-04-18T21:26:35.708Z,8.27
2018-04-18T21:29:03.358Z,8.93
2018-04-18T21:31:32.691Z,9.13
2018-04-18T21:34:01.277Z,8.80
2018-04-18T21:36:28.948Z,8.80
2018-04-18T21:38:56.538Z,8.87
2018-04-18T21:41:24.196Z,8.60
2018-04-18T21:43:51.780Z,8.40
2018-04-18T21:46:19.359Z,8.13
2018-04-18T21:48:47.098Z,9.10
2018-04-18T21:51:14.679Z,9.30
2018-04-18T21:53:42.276Z,8.97
2018-04-18T21:56:10.003Z,9.07
2018-04-18T21:58:37.833Z,9.33
2018-04-18T22:01:05.528Z,9.43
2018-04-18T22:03:33.277Z,9.33
2018-04-18T22:06:01.090Z,9.60
2018-04-18T22:08:28.689Z,9.87
2018-04-18T22:10:56.659Z,9.93
2018-04-18T22:13:24.337Z,11.23
2018-04-18T22:15:51.993Z,9.87
2018-04-18T22:18:19.768Z,10.50
2018-04-18T22:20:47.360Z,10.80
2018-04-18T22:23:15.074Z,9.77
2018-04-18T22:25:42.717Z,9.83
2018-04-18T22:28:10.378Z,10.17
2018-04-18T22:30:37.986Z,10.60
2018-04-18T22:33:05.864Z,9.20
2018-04-18T22:35:33.443Z,9.60
2018-04-18T22:38:01.098Z,10.10
2018-04-18T22:40:28.889Z,9.73
2018-04-18T22:42:56.529Z,8.97
2018-04-18T22:45:24.347Z,8.60
2018-04-18T22:47:51.988Z,8.63
2018-04-18T22:50:19.628Z,8.57
2018-04-18T22:52:47.204Z,8.80
2018-04-18T22:55:14.897Z,9.00
2018-04-18T22:57:42.483Z,8.50
2018-04-18T23:00:10.165Z,8.47
2018-04-18T23:02:37.856Z,8.17
2018-04-18T23:05:05.441Z,7.90
2018-04-18T23:07:33.019Z,8.13
2018-04-18T23:10:00.727Z,7.23
2018-04-18T23:12:28.307Z,7.00
2018-04-18T23:14:55.889Z,7.37
2018-04-18T23:17:23.680Z,7.23
2018-04-18T23:19:51.261Z,7.50
2018-04-18T23:22:30.804Z,7.43
2018-04-18T23:24:58.372Z,7.03
2018-04-18T23:27:25.960Z,7.13
2018-04-18T23:29:53.926Z,7.67
2018-04-18T23:32:21.649Z,8.07
2018-04-18T23:34:49.340Z,6.90
2018-04-18T23:37:16.976Z,7.63
2018-04-18T23:39:45.221Z,7.53
2018-04-18T23:42:12.872Z,7.30
2018-04-18T23:44:40.656Z,6.67
2018-04-18T23:47:08.273Z,7.53
2018-04-18T23:49:35.857Z,7.37
2018-04-18T23:52:03.585Z,7.43
2018-04-18T23:54:31.175Z,6.93
2018-04-18T23:56:58.764Z,7.40
2018-04-18T23:59:26.481Z,6.93
